Time;durP1;ratioP1;P1;durP2;ratioP2;P2;SDS_P1;SDS_P2;PMS_P1;PMS_P2;Temp;Humidity;BMP_temperature;BMP_pressure;BME280_temperature;BME280_humidity;BME280_pressure;Samples;Min_cycle;Max_cycle;Signal;HPM_P1;HPM_P2
2022/05/31 00:01:36;;;;;;;5.35;2.05;;;;;;;19.13;70.25;101133.72;4934490;29;20036;-87
2022/05/31 00:04:01;;;;;;;4.53;2.10;;;;;;;19.19;70.55;101146.38;4917555;29;20405;-90
2022/05/31 00:06:27;;;;;;;4.55;2.10;;;;;;;19.13;69.77;101122.41;4934419;29;20087;-88
2022/05/31 00:08:53;;;;;;;4.93;2.40;;;;;;;19.13;69.49;101125.84;4934309;29;20039;-88
2022/05/31 00:11:19;;;;;;;3.67;2.13;;;;;;;19.18;69.09;101142.09;4934610;29;20019;-88
2022/05/31 00:13:45;;;;;;;4.43;2.20;;;;;;;19.04;69.36;101134.44;4918392;29;20031;-87
2022/05/31 00:16:10;;;;;;;4.18;2.70;;;;;;;18.94;69.85;101130.84;4918532;29;20091;-87
2022/05/31 00:18:36;;;;;;;4.53;2.22;;;;;;;18.83;69.83;101131.66;4918132;29;20123;-88
2022/05/31 00:21:02;;;;;;;5.97;2.40;;;;;;;18.69;70.26;101126.63;4950376;29;20465;-87
2022/05/31 00:23:28;;;;;;;7.30;2.33;;;;;;;18.76;70.50;101146.16;4918219;29;20489;-87
2022/05/31 00:25:53;;;;;;;6.45;2.60;;;;;;;18.53;70.82;101105.94;4933811;29;20032;-87
2022/05/31 00:28:19;;;;;;;6.43;2.47;;;;;;;18.75;70.99;101141.03;4949748;29;20032;-88
2022/05/31 00:30:45;;;;;;;5.32;2.35;;;;;;;18.73;70.70;101140.31;4918214;29;20024;-87
2022/05/31 00:33:10;;;;;;;5.03;2.50;;;;;;;18.77;70.79;101145.22;4933521;29;20047;-88
2022/05/31 00:35:39;;;;;;;4.10;2.50;;;;;;;18.64;70.59;101128.72;4934189;29;20039;-87
2022/05/31 00:38:05;;;;;;;6.95;2.78;;;;;;;18.74;70.66;101145.44;4933647;29;20062;-88
2022/05/31 00:40:31;;;;;;;4.75;2.50;;;;;;;18.71;70.81;101140.44;4933785;29;20028;-88
2022/05/31 00:43:08;;;;;;;6.70;2.72;;;;;;;18.63;70.73;101146.22;4917800;29;20023;-88
2022/05/31 00:45:50;;;;;;;9.60;2.70;;;;;;;18.78;70.28;101151.28;4917596;29;20027;-88
2022/05/31 00:48:20;;;;;;;4.77;2.53;;;;;;;18.74;70.45;101148.06;4933563;29;20054;-88
2022/05/31 00:50:57;;;;;;;5.45;2.58;;;;;;;18.40;70.85;101089.47;4917945;29;20156;-88
2022/05/31 00:53:28;;;;;;;4.68;2.40;;;;;;;18.61;71.06;101129.78;4933392;29;20035;-88
2022/05/31 00:55:58;;;;;;;4.72;2.80;;;;;;;18.69;71.42;101144.97;4917636;29;20031;-88
2022/05/31 00:58:50;;;;;;;4.03;2.40;;;;;;;18.60;70.53;101135.97;4933232;29;20507;-87
2022/05/31 01:01:16;;;;;;;6.53;2.65;;;;;;;18.65;70.72;101132.19;4933233;29;20024;-87
2022/05/31 01:03:42;;;;;;;5.63;2.28;;;;;;;18.63;71.55;101142.75;4932893;29;20040;-89
2022/05/31 01:06:10;;;;;;;5.75;2.53;;;;;;;18.64;71.22;101144.44;4933350;29;20059;-88
2022/05/31 01:08:35;;;;;;;5.22;2.80;;;;;;;18.57;70.81;101133.56;4917748;29;20058;-87
2022/05/31 01:11:01;;;;;;;6.65;2.50;;;;;;;18.52;70.53;101109.50;4917474;29;20039;-87
2022/05/31 01:13:27;;;;;;;3.83;2.72;;;;;;;18.56;71.38;101142.38;4933114;29;20031;-86
2022/05/31 01:16:01;;;;;;;6.65;3.15;;;;;;;18.38;71.26;101141.09;4932072;29;20113;-88
2022/05/31 01:18:26;;;;;;;4.43;2.70;;;;;;;18.31;71.62;101147.78;4933186;29;20027;-87
2022/05/31 01:20:52;;;;;;;6.55;3.45;;;;;;;18.27;71.92;101141.91;4917220;29;20034;-87
2022/05/31 01:23:17;;;;;;;6.35;3.20;;;;;;;18.08;72.26;101122.41;4917094;29;20032;-87
2022/05/31 01:25:51;;;;;;;6.70;2.70;;;;;;;18.20;72.44;101151.16;4933049;29;20031;-87
2022/05/31 01:28:32;;;;;;;12.15;4.50;;;;;;;18.14;72.31;101145.53;4934224;29;20027;-88
2022/05/31 01:31:32;;;;;;;7.03;3.90;;;;;;;18.11;72.96;101151.84;4932626;29;20489;-87
2022/05/31 01:34:20;;;;;;;7.15;3.50;;;;;;;18.06;73.07;101148.69;4932385;29;20489;-88
2022/05/31 01:36:48;;;;;;;9.02;3.63;;;;;;;18.06;72.90;101136.44;4947682;29;20027;-88
2022/05/31 01:39:37;;;;;;;7.68;4.28;;;;;;;18.17;72.97;101161.00;4932590;29;20031;-89
2022/05/31 01:42:06;;;;;;;9.48;4.28;;;;;;;18.28;72.38;101174.16;4931856;29;20498;-87
2022/05/31 01:44:33;;;;;;;8.35;4.00;;;;;;;18.23;72.37;101166.66;4932338;29;20028;-87
2022/05/31 01:46:58;;;;;;;12.38;7.75;;;;;;;18.25;72.50;101156.06;4932666;29;20051;-88
2022/05/31 01:49:25;;;;;;;10.27;7.20;;;;;;;18.26;72.41;101169.03;4932681;29;20114;-87
2022/05/31 01:51:50;;;;;;;8.45;3.75;;;;;;;18.15;72.55;101149.81;4916746;29;20036;-87
2022/05/31 01:54:17;;;;;;;6.43;3.45;;;;;;;18.11;72.21;101162.31;4932576;29;20038;-87
2022/05/31 01:56:42;;;;;;;5.88;3.47;;;;;;;18.18;72.56;101168.75;4932400;29;20028;-88
2022/05/31 01:59:08;;;;;;;7.53;3.55;;;;;;;18.10;72.85;101160.63;4932301;29;20028;-88
2022/05/31 02:01:34;;;;;;;5.30;3.47;;;;;;;17.94;73.06;101149.56;4932822;29;20039;-86
2022/05/31 02:03:59;;;;;;;6.65;3.95;;;;;;;17.93;72.61;101161.84;4932403;29;20082;-88
2022/05/31 02:06:36;;;;;;;6.63;3.70;;;;;;;17.96;73.52;101182.56;4932544;29;20032;-88
2022/05/31 02:09:03;;;;;;;6.35;3.97;;;;;;;17.88;73.31;101147.38;4916693;29;20039;-88
2022/05/31 02:11:29;;;;;;;8.45;3.97;;;;;;;17.98;73.34;101172.78;4932444;29;20024;-87
2022/05/31 02:13:54;;;;;;;10.50;4.40;;;;;;;17.92;73.33;101178.50;4932052;29;20043;-87
2022/05/31 02:16:20;;;;;;;9.45;4.40;;;;;;;17.96;73.40;101187.78;4916592;29;20489;-86
2022/05/31 02:21:35;;;;;;;8.40;3.75;;;;;;;17.92;73.27;101178.50;4932299;29;20095;-89
2022/05/31 02:24:07;;;;;;;11.02;4.38;;;;;;;17.99;73.31;101190.22;4917114;29;20460;-86
2022/05/31 02:26:33;;;;;;;8.80;4.55;;;;;;;17.92;73.09;101181.09;4933469;29;20098;-88
2022/05/31 02:28:59;;;;;;;8.73;4.70;;;;;;;17.92;73.08;101188.13;4919946;29;20028;-86
2022/05/31 02:31:26;;;;;;;8.98;4.45;;;;;;;18.00;73.34;101180.56;4936167;29;20550;-87
2022/05/31 02:33:51;;;;;;;12.80;5.60;;;;;;;18.08;72.63;101187.84;4951966;29;20027;-86
2022/05/31 02:36:17;;;;;;;6.93;4.28;;;;;;;18.11;73.04;101187.66;4951738;29;20032;-87
2022/05/31 02:38:42;;;;;;;7.88;4.47;;;;;;;18.19;73.25;101195.78;4935746;29;20060;-88
2022/05/31 02:41:08;;;;;;;8.82;4.93;;;;;;;18.16;73.10;101190.75;4952113;29;20027;-86
2022/05/31 02:43:33;;;;;;;7.35;4.18;;;;;;;18.18;72.86;101199.34;4935491;29;20099;-87
2022/05/31 02:46:00;;;;;;;10.30;4.32;;;;;;;18.09;72.64;101195.59;4919938;29;20035;-87
2022/05/31 02:48:25;;;;;;;8.88;3.97;;;;;;;18.07;72.34;101210.59;4935530;29;20110;-86
2022/05/31 02:50:50;;;;;;;9.88;4.95;;;;;;;18.18;72.44;101231.59;4935780;29;20038;-87
2022/05/31 02:53:16;;;;;;;10.57;4.60;;;;;;;18.11;72.45;101225.16;4936913;29;20028;-88
2022/05/31 02:55:42;;;;;;;10.15;4.78;;;;;;;18.02;72.75;101213.53;4919838;29;20043;-89
2022/05/31 02:58:07;;;;;;;8.95;4.70;;;;;;;18.14;72.46;101229.31;4935364;29;20405;-87
2022/05/31 03:00:33;;;;;;;8.40;4.45;;;;;;;18.14;72.47;101245.88;4935795;29;20401;-88
2022/05/31 03:02:58;;;;;;;6.57;4.25;;;;;;;18.15;72.98;101246.69;4935374;29;20087;-88
2022/05/31 03:05:24;;;;;;;6.85;4.60;;;;;;;18.06;72.69;101233.31;4919616;29;20031;-90
2022/05/31 03:07:50;;;;;;;9.07;4.72;;;;;;;18.12;72.88;101246.94;4935512;29;20059;-89
2022/05/31 03:10:16;;;;;;;7.90;4.45;;;;;;;18.11;72.51;101243.47;4935498;29;20039;-87
2022/05/31 03:12:41;;;;;;;8.85;4.72;;;;;;;18.58;71.07;101249.69;4935124;29;20035;-88
2022/05/31 03:15:08;;;;;;;9.02;4.00;;;;;;;18.58;71.11;101255.78;4935637;29;20075;-89
2022/05/31 03:17:43;;;;;;;8.00;4.60;;;;;;;18.77;70.01;101257.91;4951175;29;20485;-89
2022/05/31 03:20:15;;;;;;;9.25;4.72;;;;;;;18.90;69.68;101252.63;4935533;29;20409;-89
2022/05/31 03:22:46;;;;;;;8.30;4.30;;;;;;;18.84;69.89;101250.44;4950367;29;20108;-87
2022/05/31 03:25:23;;;;;;;26.30;5.30;;;;;;;19.08;68.38;101250.44;4950433;29;20032;-88
2022/05/31 03:27:48;;;;;;;122.90;10.80;;;;;;;19.02;69.12;101262.19;4919360;29;20548;-88
2022/05/31 03:30:14;;;;;;;10.35;5.05;;;;;;;18.81;69.46;101261.16;4917122;29;20038;-89
2022/05/31 03:32:39;;;;;;;9.60;5.15;;;;;;;18.72;70.44;101269.69;4934120;29;20413;-88
2022/05/31 03:35:05;;;;;;;9.43;4.72;;;;;;;18.66;70.45;101268.34;4934843;29;20032;-89
2022/05/31 03:37:31;;;;;;;8.98;4.75;;;;;;;18.59;70.28;101241.75;4934075;29;20051;-90
2022/05/31 03:39:56;;;;;;;8.55;4.47;;;;;;;18.57;70.07;101248.84;4933822;29;20552;-88
2022/05/31 03:42:22;;;;;;;10.48;5.28;;;;;;;18.57;70.66;101256.72;4934577;29;20409;-89
2022/05/31 03:44:47;;;;;;;8.60;5.15;;;;;;;18.65;70.47;101263.22;4934625;29;20027;-90
2022/05/31 03:47:13;;;;;;;7.88;4.80;;;;;;;18.69;70.88;101265.53;4934833;29;20509;-89
2022/05/31 03:49:38;;;;;;;6.38;4.68;;;;;;;18.76;70.20;101269.34;4934785;29;20504;-90
2022/05/31 03:52:04;;;;;;;8.95;4.55;;;;;;;18.81;70.36;101285.59;4934490;29;20032;-89
2022/05/31 03:54:30;;;;;;;10.02;4.70;;;;;;;19.00;70.24;101282.47;4918872;29;20505;-92
2022/05/31 03:56:56;;;;;;;14.40;5.78;;;;;;;19.11;70.98;101274.63;4935153;29;20035;-90
2022/05/31 03:59:21;;;;;;;11.23;5.00;;;;;;;19.68;68.90;101286.13;4919019;29;20023;-88
2022/05/31 04:01:47;;;;;;;8.05;4.60;;;;;;;19.75;68.13;101269.75;4924321;29;20386;-86
2022/05/31 04:04:12;;;;;;;16.73;4.80;;;;;;;19.81;68.33;101273.72;4937218;29;20046;-85
2022/05/31 04:06:38;;;;;;;14.13;4.75;;;;;;;19.85;67.84;101277.75;4921193;29;20095;-85
2022/05/31 04:09:04;;;;;;;16.02;5.57;;;;;;;19.79;68.35;101282.69;4902459;29;20032;-85
2022/05/31 04:11:29;;;;;;;12.77;7.68;;;;;;;19.70;66.89;101234.34;4937199;29;20167;-84
2022/05/31 04:13:55;;;;;;;11.13;5.50;;;;;;;20.36;65.80;101271.19;4940032;29;20039;-85
2022/05/31 04:16:20;;;;;;;12.80;4.97;;;;;;;20.55;65.06;101288.03;4937833;29;20035;-86
2022/05/31 04:18:46;;;;;;;11.63;7.60;;;;;;;20.43;65.37;101290.78;4931135;29;20123;-86
2022/05/31 04:21:13;;;;;;;11.48;5.72;;;;;;;20.13;66.22;101286.13;4932628;29;20034;-84
2022/05/31 04:26:23;;;;;;;10.18;5.32;;;;;;;19.86;66.82;101289.09;4923973;29;20547;-85
2022/05/31 04:28:48;;;;;;;11.65;6.05;;;;;;;20.02;66.98;101286.97;4941830;29;20036;-93
2022/05/31 04:31:14;;;;;;;17.40;9.10;;;;;;;20.08;66.63;101293.53;4933216;29;20035;-92
2022/05/31 04:33:39;;;;;;;16.40;7.88;;;;;;;20.27;65.53;101278.84;4916496;29;20028;-88
2022/05/31 04:36:09;;;;;;;8.65;5.68;;;;;;;20.32;65.13;101289.81;4935891;28;20137;-85
2022/05/31 04:38:35;;;;;;;12.90;6.60;;;;;;;20.36;64.46;101287.78;4972573;28;20051;-88
2022/05/31 04:41:01;;;;;;;14.73;5.90;;;;;;;20.27;65.25;101301.66;4965057;28;20072;-88
2022/05/31 04:43:26;;;;;;;7.18;5.20;;;;;;;20.22;65.15;101304.63;4980004;28;20038;-89
2022/05/31 04:45:52;;;;;;;10.25;5.25;;;;;;;20.14;65.56;101301.75;4969182;28;20029;-94
2022/05/31 04:48:17;;;;;;;13.38;5.43;;;;;;;20.23;65.73;101293.16;4951030;28;20034;-89
2022/05/31 04:50:42;;;;;;;11.50;5.57;;;;;;;20.18;65.54;101284.81;4962845;28;20522;-86
2022/05/31 04:53:08;;;;;;;9.10;5.50;;;;;;;20.17;65.67;101291.03;4987077;28;20046;-90
2022/05/31 04:55:35;;;;;;;9.40;5.80;;;;;;;20.31;65.67;101297.81;4984739;28;20455;-87
2022/05/31 04:58:00;;;;;;;10.77;5.63;;;;;;;20.61;64.75;101298.03;4976558;28;20030;-94
2022/05/31 05:00:26;;;;;;;13.82;5.65;;;;;;;20.98;63.59;101291.56;4977876;28;20038;-89
2022/05/31 05:02:51;;;;;;;9.57;5.13;;;;;;;21.33;62.49;101302.66;4954666;28;20027;-87
2022/05/31 05:05:17;;;;;;;7.18;5.28;;;;;;;21.40;61.69;101306.44;4981391;28;20034;-86
2022/05/31 05:07:42;;;;;;;9.25;5.45;;;;;;;21.38;62.29;101305.75;4980441;28;20031;-85
2022/05/31 05:10:08;;;;;;;11.43;5.20;;;;;;;21.29;61.76;101293.38;4962608;28;20420;-91
2022/05/31 05:12:34;;;;;;;13.38;5.65;;;;;;;21.35;62.11;101305.19;4979505;28;20789;-91
2022/05/31 05:14:59;;;;;;;10.48;5.95;;;;;;;21.17;61.60;101297.81;4970002;28;20062;-88
2022/05/31 05:17:25;;;;;;;11.45;5.47;;;;;;;21.28;63.12;101286.44;4979439;28;20065;-91
2022/05/31 05:19:50;;;;;;;12.00;5.93;;;;;;;21.57;62.13;101309.47;4958334;28;20046;-86
2022/05/31 05:22:16;;;;;;;10.60;5.32;;;;;;;21.65;62.39;101301.78;4979409;28;20027;-87
2022/05/31 05:24:41;;;;;;;11.80;6.78;;;;;;;21.62;61.24;101305.47;4974824;28;20043;-86
2022/05/31 05:27:07;;;;;;;10.13;5.75;;;;;;;21.56;62.44;101297.28;4965250;28;20108;-89
2022/05/31 05:32:16;;;;;;;12.48;7.35;;;;;;;21.52;62.97;101296.69;4947296;28;20439;-93
2022/05/31 05:34:42;;;;;;;13.73;8.25;;;;;;;21.74;62.58;101295.72;4969615;28;21075;-90
2022/05/31 05:37:07;;;;;;;11.43;7.50;;;;;;;21.81;61.98;101286.31;4922625;28;20055;-91
2022/05/31 05:39:33;;;;;;;11.07;6.55;;;;;;;21.95;61.43;101296.50;4949348;28;20026;-89
2022/05/31 05:41:59;;;;;;;14.57;7.32;;;;;;;22.01;61.77;101280.16;4975130;28;20129;-92
2022/05/31 05:44:25;;;;;;;12.63;7.20;;;;;;;22.09;62.15;101290.06;4966740;28;20070;-85
2022/05/31 05:46:50;;;;;;;9.32;7.22;;;;;;;22.15;61.02;101301.88;4979632;28;20038;-91
2022/05/31 05:49:16;;;;;;;15.40;7.25;;;;;;;22.14;60.96;101279.13;4961734;28;20034;-92
2022/05/31 05:51:41;;;;;;;11.18;7.00;;;;;;;22.41;60.63;101300.41;4973965;28;20038;-91
2022/05/31 05:54:07;;;;;;;12.18;6.82;;;;;;;22.67;60.14;101307.84;4969139;28;20049;-89
2022/05/31 05:56:32;;;;;;;11.93;7.40;;;;;;;22.62;60.19;101292.44;4957567;28;20041;-88
2022/05/31 05:58:58;;;;;;;13.27;7.18;;;;;;;22.75;59.39;101300.91;4973068;28;20043;-89
2022/05/31 06:01:42;;;;;;;12.25;7.60;;;;;;;22.80;59.86;101289.94;4950127;28;20035;-92
2022/05/31 06:04:21;;;;;;;13.27;7.65;;;;;;;22.97;59.35;101299.81;4961172;28;20121;-87
2022/05/31 06:06:47;;;;;;;14.07;8.82;;;;;;;22.84;58.56;101299.28;4982506;28;20146;-89
2022/05/31 06:09:15;;;;;;;17.10;8.45;;;;;;;22.86;59.53;101297.34;4975048;28;20027;-87
2022/05/31 06:11:47;;;;;;;14.13;8.98;;;;;;;22.67;59.20;101266.47;4957442;28;20561;-83
2022/05/31 06:14:48;;;;;;;14.65;9.45;;;;;;;22.78;59.79;101281.31;4967243;28;20115;-91
2022/05/31 06:17:17;;;;;;;16.42;9.43;;;;;;;22.95;59.50;101287.75;4936893;28;20515;-86
2022/05/31 06:19:43;;;;;;;13.65;9.13;;;;;;;23.00;59.52;101291.63;4945641;28;20031;-88
2022/05/31 06:22:08;;;;;;;17.05;10.80;;;;;;;22.79;59.95;101256.59;4953843;28;20031;-87
2022/05/31 06:24:35;;;;;;;13.85;9.32;;;;;;;23.17;59.57;101293.56;4941185;28;20030;-92
2022/05/31 06:27:00;;;;;;;16.98;9.60;;;;;;;23.14;59.30;101283.31;4958099;28;20053;-90
2022/05/31 06:29:27;;;;;;;16.10;9.65;;;;;;;23.16;57.92;101278.72;4937545;28;20039;-88
2022/05/31 06:31:53;;;;;;;15.73;11.27;;;;;;;23.15;58.37;101274.41;4929346;28;20455;-86
2022/05/31 06:34:19;;;;;;;21.45;13.38;;;;;;;23.28;58.90;101279.38;4950584;28;20027;-86
2022/05/31 06:36:44;;;;;;;18.38;11.30;;;;;;;23.45;59.55;101276.03;4939661;28;20059;-86
2022/05/31 06:39:10;;;;;;;19.48;12.15;;;;;;;23.55;59.01;101264.59;4957142;28;20042;-85
2022/05/31 06:41:36;;;;;;;14.25;9.80;;;;;;;23.73;57.58;101278.75;4950554;28;20046;-84
2022/05/31 06:44:02;;;;;;;17.15;10.45;;;;;;;23.86;58.35;101289.00;4926509;28;20035;-91
2022/05/31 06:46:27;;;;;;;17.40;10.77;;;;;;;23.81;57.79;101270.94;4951461;28;20110;-85
2022/05/31 06:48:53;;;;;;;17.50;11.10;;;;;;;23.84;57.10;101267.16;4935592;28;20030;-80
2022/05/31 06:56:48;;;;;;;19.75;11.20;;;;;;;23.95;56.86;101275.75;4951394;28;20630;-85
2022/05/31 06:56:50;;;;;;;16.77;11.45;;;;;;;24.10;56.80;101278.75;4944282;28;20054;-89
2022/05/31 06:59:16;;;;;;;17.30;11.13;;;;;;;24.14;57.09;101282.75;4958236;28;20041;-93
2022/05/31 07:01:44;;;;;;;20.83;11.82;;;;;;;24.27;56.13;101283.22;4925884;28;20023;-90
2022/05/31 07:04:10;;;;;;;21.45;15.23;;;;;;;24.36;56.09;101270.94;4937345;28;20509;-94
2022/05/31 07:06:35;;;;;;;15.45;11.65;;;;;;;24.38;54.08;101270.81;4940144;28;20026;-89
2022/05/31 07:09:01;;;;;;;21.65;14.75;;;;;;;24.50;55.83;101277.56;4955611;28;20035;-90
2022/05/31 07:11:26;;;;;;;19.85;13.05;;;;;;;24.60;54.42;101279.16;4952852;28;20566;-86
2022/05/31 07:13:52;;;;;;;17.15;12.40;;;;;;;24.64;53.82;101284.13;4939719;28;20046;-88
2022/05/31 07:16:17;;;;;;;15.52;11.20;;;;;;;24.70;54.80;101278.25;4950441;28;20090;-88
2022/05/31 07:18:43;;;;;;;43.72;29.15;;;;;;;24.92;54.63;101269.84;4926386;28;20032;-87
2022/05/31 07:21:09;;;;;;;42.45;32.03;;;;;;;25.14;54.50;101284.44;4943805;28;20027;-90
2022/05/31 07:23:34;;;;;;;19.60;12.63;;;;;;;25.30;53.91;101275.81;4950284;28;20035;-90
2022/05/31 07:26:00;;;;;;;17.17;11.82;;;;;;;25.38;53.53;101279.34;4940131;28;20031;-87
2022/05/31 07:28:28;;;;;;;18.65;12.40;;;;;;;25.43;52.96;101270.91;4958284;28;20112;-87
2022/05/31 07:30:55;;;;;;;21.75;12.43;;;;;;;25.24;52.48;101264.00;4950545;28;20115;-88
2022/05/31 07:33:20;;;;;;;17.92;12.63;;;;;;;25.32;52.64;101274.66;4927853;28;20515;-88
2022/05/31 07:35:47;;;;;;;20.85;12.65;;;;;;;25.34;53.21;101277.13;4933833;28;20027;-83
2022/05/31 07:38:12;;;;;;;25.13;14.80;;;;;;;25.41;53.66;101268.44;4922449;28;20062;-84
2022/05/31 07:40:38;;;;;;;23.50;12.20;;;;;;;25.51;53.25;101278.09;4938916;28;20051;-85
2022/05/31 07:43:04;;;;;;;24.13;12.88;;;;;;;25.60;52.22;101277.97;4950092;28;20031;-93
2022/05/31 07:45:29;;;;;;;17.90;12.73;;;;;;;25.63;51.81;101272.34;4949937;28;20030;-89
2022/05/31 07:47:55;;;;;;;20.33;11.68;;;;;;;25.73;51.13;101282.88;4955489;28;20026;-87
2022/05/31 07:50:20;;;;;;;17.63;11.77;;;;;;;25.78;50.36;101270.00;4939167;28;20027;-89
2022/05/31 07:52:46;;;;;;;21.95;12.45;;;;;;;26.03;51.47;101279.69;4941958;28;21583;-85
2022/05/31 07:55:11;;;;;;;17.42;11.18;;;;;;;25.90;50.35;101252.81;4956657;28;20031;-87
2022/05/31 08:00:21;;;;;;;24.23;17.10;;;;;;;26.23;48.86;101271.47;4949975;28;20178;-86
2022/05/31 08:02:47;;;;;;;28.65;19.50;;;;;;;26.16;48.06;101267.84;4951475;28;20032;-87
2022/05/31 08:05:13;;;;;;;33.17;19.65;;;;;;;26.21;47.96;101276.13;4942422;28;20349;-86
2022/05/31 08:07:39;;;;;;;15.70;9.02;;;;;;;26.34;45.49;101276.47;4957898;28;20031;-88
2022/05/31 08:10:05;;;;;;;15.73;10.45;;;;;;;26.57;46.86;101274.91;4956076;28;20436;-85
2022/05/31 08:12:31;;;;;;;15.30;10.38;;;;;;;26.68;47.17;101278.25;4954674;28;21088;-88
2022/05/31 08:14:56;;;;;;;17.45;11.13;;;;;;;26.72;48.46;101269.78;4940074;28;20504;-90
2022/05/31 08:17:22;;;;;;;19.20;13.45;;;;;;;26.70;48.19;101255.84;4942808;28;20086;-88
2022/05/31 08:19:47;;;;;;;16.63;11.75;;;;;;;26.83;47.04;101271.28;4951309;28;20051;-87
2022/05/31 08:22:13;;;;;;;16.02;10.75;;;;;;;26.71;46.49;101272.59;4940634;28;20085;-92
2022/05/31 08:24:38;;;;;;;19.33;10.65;;;;;;;26.90;47.49;101271.47;4939944;28;20443;-92
2022/05/31 08:27:04;;;;;;;14.35;11.13;;;;;;;27.12;47.50;101276.94;4940135;28;20030;-87
2022/05/31 08:29:30;;;;;;;19.58;10.95;;;;;;;27.14;47.31;101277.63;4940230;28;20150;-88
2022/05/31 08:31:58;;;;;;;15.85;10.63;;;;;;;27.14;46.06;101274.16;4937091;28;20049;-85
2022/05/31 08:34:26;;;;;;;17.05;10.82;;;;;;;27.22;45.85;101265.31;4928750;28;20023;-89
2022/05/31 08:36:51;;;;;;;17.75;10.57;;;;;;;27.42;45.84;101277.25;4925460;28;20146;-90
2022/05/31 08:39:17;;;;;;;12.65;9.63;;;;;;;27.54;44.12;101281.22;4917992;28;20408;-91
2022/05/31 08:41:44;;;;;;;15.55;9.30;;;;;;;27.67;42.71;101273.56;4941399;28;20024;-91
2022/05/31 08:44:22;;;;;;;14.95;8.95;;;;;;;27.85;42.14;101272.50;4931178;28;20043;-88
2022/05/31 08:47:00;;;;;;;12.73;9.60;;;;;;;28.05;43.60;101271.09;4949201;28;20035;-90
2022/05/31 08:52:47;;;;;;;18.52;12.95;;;;;;;28.44;44.28;101259.59;4956532;28;20086;-87
2022/05/31 08:58:29;;;;;;;14.07;10.63;;;;;;;28.73;43.40;101267.72;4940070;28;20078;-90
2022/05/31 09:00:54;;;;;;;17.20;10.77;;;;;;;28.70;42.73;101262.72;4939748;28;20059;-84
2022/05/31 09:03:24;;;;;;;21.95;14.35;;;;;;;28.58;43.49;101238.38;4948309;28;20420;-87
2022/05/31 09:06:07;;;;;;;20.05;10.88;;;;;;;28.56;43.13;101229.72;4956256;28;20031;-89
2022/05/31 09:08:47;;;;;;;16.45;9.40;;;;;;;28.92;42.12;101274.44;4950627;28;20124;-86
2022/05/31 09:11:15;;;;;;;15.63;8.90;;;;;;;28.70;40.78;101278.69;4952998;28;20039;-90
2022/05/31 09:13:56;;;;;;;14.55;9.52;;;;;;;28.73;41.49;101278.38;4951676;28;20027;-87
2022/05/31 09:16:34;;;;;;;14.77;9.88;;;;;;;28.85;41.37;101266.28;4951260;28;20031;-89
2022/05/31 09:19:02;;;;;;;13.13;9.20;;;;;;;28.99;40.79;101272.69;4947616;28;20027;-90
2022/05/31 09:21:37;;;;;;;14.70;9.10;;;;;;;29.02;41.46;101272.34;4931960;29;20461;-89
2022/05/31 09:24:03;;;;;;;14.52;9.05;;;;;;;28.71;41.46;101236.94;4933026;28;20038;-91
2022/05/31 09:26:51;;;;;;;14.13;9.20;;;;;;;28.75;41.45;101271.03;4935133;28;20049;-90
2022/05/31 09:29:21;;;;;;;14.38;9.05;;;;;;;28.41;41.49;101252.78;4954404;28;20062;-87
2022/05/31 09:32:13;;;;;;;10.52;7.80;;;;;;;28.69;41.13;101268.22;4940527;28;20027;-86
2022/05/31 09:34:41;;;;;;;14.68;10.43;;;;;;;28.95;40.37;101265.25;4945185;28;20034;-88
2022/05/31 09:37:28;;;;;;;16.45;8.93;;;;;;;28.93;41.00;101276.06;4924262;28;20512;-88
2022/05/31 09:40:20;;;;;;;14.07;9.40;;;;;;;28.85;41.67;101276.09;4945331;28;20116;-90
2022/05/31 09:42:52;;;;;;;12.27;7.80;;;;;;;28.98;40.44;101265.69;4939411;28;20051;-90
2022/05/31 09:45:18;;;;;;;12.52;8.00;;;;;;;29.26;39.55;101265.13;4954443;28;20314;-86
2022/05/31 09:47:43;;;;;;;13.48;8.10;;;;;;;29.52;38.58;101257.53;4928588;29;20091;-86
2022/05/31 09:50:09;;;;;;;13.05;8.05;;;;;;;29.71;38.73;101253.50;4932411;28;20571;-85
2022/05/31 09:52:47;;;;;;;18.50;9.63;;;;;;;29.78;39.17;101250.91;4925549;28;20043;-86
2022/05/31 09:58:12;;;;;;;14.13;8.88;;;;;;;29.56;41.75;101258.00;4936019;28;20073;-83
2022/05/31 10:01:13;;;;;;;16.42;9.52;;;;;;;29.53;40.64;101226.38;4941166;28;20047;-81
2022/05/31 10:03:46;;;;;;;22.27;12.93;;;;;;;29.89;39.80;101240.59;4949859;28;20045;-84
2022/05/31 10:06:18;;;;;;;13.73;8.82;;;;;;;29.83;39.94;101228.00;4951520;28;20050;-83
2022/05/31 10:08:47;;;;;;;15.95;9.05;;;;;;;29.99;39.70;101250.97;4956533;28;20031;-84
2022/05/31 10:11:29;;;;;;;11.38;7.63;;;;;;;30.09;37.87;101250.69;4923137;29;20479;-84
2022/05/31 10:14:02;;;;;;;25.63;8.52;;;;;;;30.38;38.32;101245.25;4946600;29;20032;-85
2022/05/31 10:16:30;;;;;;;17.30;9.30;;;;;;;30.56;38.79;101239.47;4919665;29;20035;-84
2022/05/31 10:18:57;;;;;;;13.10;8.40;;;;;;;30.60;37.84;101231.94;4918443;29;20037;-89
2022/05/31 10:21:42;;;;;;;12.52;7.85;;;;;;;30.72;38.16;101217.06;4917808;29;20106;-90
2022/05/31 10:24:07;;;;;;;17.40;8.70;;;;;;;30.90;38.12;101228.13;4949350;29;20034;-87
2022/05/31 10:26:34;;;;;;;11.75;8.05;;;;;;;30.94;36.10;101226.69;4948288;28;20023;-92
2022/05/31 10:29:06;;;;;;;16.45;9.35;;;;;;;30.95;37.33;101216.84;4932293;29;20054;-86
2022/05/31 10:31:34;;;;;;;14.30;8.30;;;;;;;31.01;36.59;101206.19;4933021;29;20039;-87
2022/05/31 10:34:01;;;;;;;13.95;10.68;;;;;;;31.39;35.77;101219.22;4935440;28;20038;-86
2022/05/31 10:36:28;;;;;;;23.42;16.17;;;;;;;31.24;35.39;101207.81;4912405;28;20043;-86
2022/05/31 10:38:54;;;;;;;12.32;8.27;;;;;;;31.32;36.08;101207.66;4932496;28;20074;-83
2022/05/31 10:41:31;;;;;;;18.67;15.98;;;;;;;31.55;35.21;101213.53;4948522;29;20484;-84
2022/05/31 10:43:58;;;;;;;11.45;7.97;;;;;;;31.38;34.71;101206.88;4932907;28;20134;-86
2022/05/31 10:46:25;;;;;;;12.68;8.15;;;;;;;31.40;35.02;101205.66;4961191;28;20027;-83
2022/05/31 10:48:55;;;;;;;11.00;7.45;;;;;;;31.29;35.09;101192.03;4952528;28;20058;-86
2022/05/31 10:51:53;;;;;;;23.05;17.75;;;;;;;31.40;36.16;101200.31;4937140;29;20504;-83
2022/05/31 10:54:37;;;;;;;12.98;8.10;;;;;;;31.63;35.35;101196.50;4953589;28;20027;-83
2022/05/31 10:57:29;;;;;;;10.32;7.80;;;;;;;31.63;34.46;101196.50;4955462;28;20515;-85
2022/05/31 11:00:14;;;;;;;11.85;8.15;;;;;;;31.37;35.41;101186.53;4953722;29;20031;-81
2022/05/31 11:02:43;;;;;;;12.10;8.02;;;;;;;31.64;34.96;101185.59;4953936;28;20035;-85
2022/05/31 11:05:10;;;;;;;14.75;8.95;;;;;;;31.48;35.31;101147.69;4952353;29;20086;-87
2022/05/31 11:14:01;;;;;;;11.10;8.20;;;;;;;32.06;35.29;101173.00;4953010;29;20109;-89
2022/05/31 11:16:48;;;;;;;13.05;8.07;;;;;;;32.15;33.51;101158.41;4951901;28;20114;-84
2022/05/31 11:19:39;;;;;;;13.45;8.13;;;;;;;32.03;34.50;101149.31;4951980;28;20114;-85
2022/05/31 11:22:49;;;;;;;15.93;8.27;;;;;;;32.26;34.96;101148.94;4948125;29;20070;-88
2022/05/31 11:25:29;;;;;;;14.02;8.63;;;;;;;32.40;35.09;101129.19;4931192;29;20472;-87
2022/05/31 11:28:07;;;;;;;14.63;8.15;;;;;;;32.56;34.65;101138.69;4951649;28;20065;-88
2022/05/31 11:30:32;;;;;;;9.75;7.90;;;;;;;32.63;34.17;101134.13;4955640;28;20035;-87
2022/05/31 11:33:25;;;;;;;11.27;8.00;;;;;;;32.73;34.18;101134.53;4952134;28;20023;-88
2022/05/31 11:36:14;;;;;;;13.07;8.38;;;;;;;32.80;33.91;101121.13;4954620;28;20039;-90
2022/05/31 11:38:58;;;;;;;10.90;7.90;;;;;;;32.55;33.50;101123.66;4951941;29;20055;-89
2022/05/31 11:42:02;;;;;;;8.18;7.38;;;;;;;32.65;33.75;101125.91;4938027;29;20031;-86
2022/05/31 11:44:30;;;;;;;10.00;7.47;;;;;;;32.41;33.06;101106.75;4913330;29;20036;-86
2022/05/31 11:47:27;;;;;;;10.63;7.70;;;;;;;32.65;33.14;101131.25;4953491;28;20042;-88
2022/05/31 11:49:59;;;;;;;13.02;7.72;;;;;;;32.68;33.80;101137.00;4953539;28;20035;-84
2022/05/31 11:52:42;;;;;;;14.75;8.15;;;;;;;32.64;32.92;101138.44;4958193;28;20106;-86
2022/05/31 11:55:26;;;;;;;15.05;7.97;;;;;;;32.42;32.77;101131.66;4952430;29;20027;-82
2022/05/31 11:58:16;;;;;;;12.20;7.75;;;;;;;31.95;34.21;101134.25;4954484;28;20061;-85